Time;durP1;ratioP1;P1;durP2;ratioP2;P2;SDS_P1;SDS_P2;PMS_P1;PMS_P2;Temp;Humidity;BMP_temperature;BMP_pressure;BME280_temperature;BME280_humidity;BME280_pressure;Samples;Min_cycle;Max_cycle;Signal;HPM_P1;HPM_P2
2022/04/04 00:00:09;;;;;;;7.77;5.87;;;-1.80;67.80;;;-3.55;76.38;98326.84;5062680;28;20450;-84
2022/04/04 00:02:36;;;;;;;8.13;5.60;;;-1.80;69.40;;;-3.47;76.72;98327.06;5049426;28;20542;-82
2022/04/04 00:05:04;;;;;;;6.13;5.53;;;-1.80;70.10;;;-3.50;77.37;98332.59;5044272;28;20456;-84
2022/04/04 00:07:32;;;;;;;6.50;5.10;;;-1.70;70.90;;;-3.71;78.18;98325.38;5064493;28;20476;-83
2022/04/04 00:09:59;;;;;;;6.60;5.63;;;-1.90;71.30;;;-3.78;78.89;98318.03;5048679;28;20476;-84
2022/04/04 00:12:27;;;;;;;7.90;5.53;;;-2.00;72.30;;;-3.70;78.97;98321.78;5064374;28;20460;-83
2022/04/04 00:14:54;;;;;;;8.50;6.23;;;-2.00;73.50;;;-3.68;78.77;98320.81;5046839;28;20492;-83
2022/04/04 00:17:21;;;;;;;9.17;6.40;;;-1.90;73.80;;;-3.71;79.51;98320.09;5046538;28;20492;-77
2022/04/04 00:19:48;;;;;;;7.83;5.40;;;-1.90;74.40;;;-3.84;80.03;98324.63;5039620;28;20455;-83
2022/04/04 00:22:15;;;;;;;7.70;5.97;;;-2.00;74.30;;;-3.73;79.71;98322.00;5063551;28;20539;-82
2022/04/04 00:24:43;;;;;;;8.50;6.17;;;-2.00;75.10;;;-3.76;80.34;98322.22;5046965;28;20966;-85
2022/04/04 00:27:10;;;;;;;7.67;6.70;;;-2.00;75.70;;;-3.73;80.44;98327.28;5044174;28;20966;-86
2022/04/04 00:29:38;;;;;;;8.07;6.07;;;-2.00;75.80;;;-3.91;80.96;98324.25;5059607;28;20994;-83
2022/04/04 00:32:06;;;;;;;9.90;5.87;;;-2.10;76.10;;;-3.89;81.57;98318.84;5049426;28;21122;-82
2022/04/04 00:34:33;;;;;;;8.87;6.07;;;-2.10;77.70;;;-3.84;82.19;98314.06;5044782;28;20461;-84
2022/04/04 00:37:00;;;;;;;8.27;5.70;;;-2.00;78.80;;;-3.77;80.97;98319.72;5055968;28;20490;-83
2022/04/04 00:39:28;;;;;;;7.77;6.10;;;-2.00;77.00;;;-4.00;80.60;98299.38;5067732;28;20461;-82
2022/04/04 00:41:56;;;;;;;7.47;5.50;;;-2.00;76.10;;;-3.90;79.84;98298.66;5069506;28;22402;-82
2022/04/04 00:44:25;;;;;;;6.07;5.47;;;-2.00;75.80;;;-4.34;80.70;98243.84;5068541;28;20865;-81
2022/04/04 00:46:52;;;;;;;8.57;5.13;;;-2.10;76.20;;;-3.87;80.94;98309.00;5073490;28;20467;-79
2022/04/04 00:49:19;;;;;;;6.30;5.33;;;-2.10;76.70;;;-4.44;81.13;98217.31;5058772;28;20519;-83
2022/04/04 00:51:46;;;;;;;7.50;5.27;;;-2.10;77.60;;;-3.94;80.57;98302.50;5070181;28;20440;-78
2022/04/04 00:54:14;;;;;;;6.53;5.70;;;-2.10;77.10;;;-3.97;80.42;98310.66;5060154;28;20483;-82
2022/04/04 00:56:41;;;;;;;7.70;5.83;;;-2.10;75.50;;;-3.93;81.12;98305.03;5050176;28;20510;-80
2022/04/04 00:59:13;;;;;;;7.63;5.23;;;-2.20;77.50;;;-4.02;81.80;98311.00;5048590;28;20519;-80
2022/04/04 01:01:41;;;;;;;9.90;6.10;;;-2.20;77.90;;;-4.06;82.81;98305.09;5050528;28;20455;-79
2022/04/04 01:04:08;;;;;;;6.83;6.13;;;-2.30;79.90;;;-4.20;83.33;98281.56;5045316;28;20914;-77
2022/04/04 01:06:36;;;;;;;9.43;5.77;;;-2.30;81.10;;;-4.29;84.10;98294.50;5053265;28;20459;-81
2022/04/04 01:09:04;;;;;;;5.90;5.30;;;-2.30;81.30;;;-4.29;84.37;98285.72;5054932;28;20881;-85
2022/04/04 01:11:31;;;;;;;13.80;6.60;;;-2.40;82.50;;;-4.39;84.77;98296.13;5047585;28;20493;-81
2022/04/04 01:13:59;;;;;;;7.40;5.73;;;-2.50;82.80;;;-4.50;85.42;98294.28;5046034;28;20499;-78
2022/04/04 01:16:27;;;;;;;10.67;6.27;;;-2.50;83.60;;;-4.52;85.57;98292.72;5045097;28;20514;-78
2022/04/04 01:18:54;;;;;;;7.63;5.67;;;-2.60;84.60;;;-4.65;86.18;98277.78;5063345;28;20532;-83
2022/04/04 01:21:21;;;;;;;7.47;5.83;;;-2.70;84.80;;;-4.68;87.02;98295.63;5039462;28;20485;-82
2022/04/04 01:23:51;;;;;;;6.10;5.50;;;-2.70;86.80;;;-4.64;87.08;98290.00;5048229;28;20473;-83
2022/04/04 01:26:20;;;;;;;7.63;6.03;;;-2.80;87.90;;;-4.70;87.58;98291.31;5050528;28;20485;-85
2022/04/04 01:28:47;;;;;;;6.77;5.47;;;-2.80;88.10;;;-4.70;87.48;98285.19;5048844;28;20531;-79
2022/04/04 01:31:14;;;;;;;7.13;6.17;;;-2.80;88.20;;;-4.80;87.84;98289.44;5042617;28;20568;-78
2022/04/04 01:33:41;;;;;;;5.63;4.83;;;-2.90;88.30;;;-4.79;87.64;98285.84;5066498;28;20448;-82
2022/04/04 01:36:08;;;;;;;8.33;6.27;;;-2.90;89.00;;;-4.79;87.99;98270.88;5066348;28;20513;-83
2022/04/04 01:38:35;;;;;;;6.73;5.93;;;-2.90;90.10;;;-4.77;88.21;98263.69;5063551;28;20488;-83
2022/04/04 01:41:02;;;;;;;7.37;5.87;;;-2.90;90.30;;;-4.89;88.44;98254.91;5057882;28;20489;-80
2022/04/04 01:43:30;;;;;;;7.57;4.93;;;-2.90;90.00;;;-4.74;88.44;98265.28;5049279;28;20478;-78
2022/04/04 01:48:42;;;;;;;6.80;5.70;;;-2.90;90.70;;;-4.80;88.98;98276.25;5073581;28;20472;-80
2022/04/04 01:51:10;;;;;;;5.73;5.20;;;-3.00;90.10;;;-4.79;88.79;98256.84;5054770;28;20528;-87
2022/04/04 01:53:37;;;;;;;8.03;6.10;;;-2.90;90.70;;;-4.71;88.41;98257.97;5033388;28;20508;-83
2022/04/04 01:56:06;;;;;;;6.40;5.33;;;-2.90;90.20;;;-4.77;88.11;98247.88;5049142;28;20448;-81
2022/04/04 01:58:36;;;;;;;8.30;6.03;;;-2.80;89.40;;;-4.77;88.03;98247.06;5070623;28;20456;-84
2022/04/04 02:01:10;;;;;;;6.27;4.87;;;-2.80;88.70;;;-4.78;88.06;98255.91;5055195;28;20543;-81
2022/04/04 02:03:38;;;;;;;7.10;5.30;;;-2.90;89.40;;;-4.83;88.63;98258.88;5057902;28;20482;-79
2022/04/04 02:06:06;;;;;;;8.23;6.40;;;-3.00;90.20;;;-4.71;88.44;98241.31;5056038;28;20489;-82
2022/04/04 02:08:34;;;;;;;6.20;4.93;;;-2.90;90.10;;;-4.78;87.79;98234.81;5075984;28;20827;-83
2022/04/04 02:11:03;;;;;;;7.70;5.70;;;-2.90;89.20;;;-4.73;87.96;98236.16;5056896;28;20457;-81
2022/04/04 02:13:30;;;;;;;7.57;5.50;;;-2.90;89.70;;;-4.75;88.25;98242.50;5051407;28;20476;-77
2022/04/04 02:16:02;;;;;;;5.80;5.20;;;-2.90;89.40;;;-4.87;88.27;98223.13;5048354;28;20473;-83
2022/04/04 02:18:30;;;;;;;5.73;4.83;;;-3.00;89.00;;;-5.18;88.08;98164.75;5052695;28;20684;-80
2022/04/04 02:20:57;;;;;;;8.23;5.80;;;-2.90;90.00;;;-4.78;88.01;98230.38;5054087;28;20455;-81
2022/04/04 02:23:25;;;;;;;8.17;5.77;;;-2.90;88.70;;;-4.83;88.15;98232.53;5035609;28;20536;-82
2022/04/04 02:25:55;;;;;;;8.10;5.60;;;-3.00;89.00;;;-4.86;87.85;98230.94;5034307;28;20456;-86
2022/04/04 02:28:22;;;;;;;10.60;6.20;;;-3.00;88.80;;;-4.89;87.72;98239.09;5042137;28;20452;-84
2022/04/04 02:30:51;;;;;;;9.83;6.13;;;-3.00;88.40;;;-4.97;88.43;98220.34;5056395;28;20521;-82
2022/04/04 02:33:20;;;;;;;7.70;5.50;;;-3.00;89.00;;;-5.41;88.03;98154.94;5050137;28;20529;-83
2022/04/04 02:35:50;;;;;;;7.43;5.50;;;-3.00;89.30;;;-4.92;87.86;98228.78;5050146;28;20443;-85
2022/04/04 02:38:17;;;;;;;6.00;4.87;;;-3.00;88.60;;;-4.86;87.68;98244.13;5050219;28;20480;-84
2022/04/04 02:40:45;;;;;;;9.17;5.93;;;-3.00;89.00;;;-5.00;87.74;98215.28;5049742;28;20468;-84
2022/04/04 02:43:13;;;;;;;7.47;5.80;;;-3.00;88.30;;;-4.99;88.63;98222.25;5054164;28;20483;-83
2022/04/04 02:45:40;;;;;;;9.17;6.03;;;-3.00;89.10;;;-4.97;88.29;98222.97;5028619;28;20452;-87
2022/04/04 02:48:08;;;;;;;9.77;5.80;;;-3.00;89.40;;;-5.36;88.17;98145.88;5054023;28;20545;-85
2022/04/04 02:50:37;;;;;;;13.23;7.57;;;-3.10;89.40;;;-5.09;88.08;98200.13;5049197;28;20447;-82
2022/04/04 02:53:05;;;;;;;12.40;8.93;;;-3.10;89.00;;;-5.74;88.87;98113.47;5037928;28;20450;-80
2022/04/04 02:58:13;;;;;;;11.70;6.57;;;-3.10;89.30;;;-5.08;89.07;98228.19;5022375;28;20461;-79
2022/04/04 03:00:41;;;;;;;8.23;6.20;;;-3.20;89.50;;;-5.07;88.57;98221.97;5048912;28;20461;-80
2022/04/04 03:03:08;;;;;;;6.00;5.40;;;-3.20;89.50;;;-5.07;88.37;98219.34;5049638;28;20934;-81
2022/04/04 03:05:37;;;;;;;6.90;5.40;;;-3.20;88.80;;;-5.19;88.75;98215.78;5047033;28;21015;-80
2022/04/04 03:08:05;;;;;;;9.70;6.50;;;-3.30;89.50;;;-5.21;89.07;98215.91;5042120;28;20557;-80
2022/04/04 03:10:33;;;;;;;9.13;6.50;;;-3.40;91.20;;;-5.06;88.50;98207.84;5059129;28;20734;-80
2022/04/04 03:13:02;;;;;;;8.57;6.33;;;-3.30;90.60;;;-5.11;88.52;98208.19;5051151;28;20460;-80
2022/04/04 03:15:31;;;;;;;6.60;5.70;;;-3.30;90.10;;;-5.05;88.53;98207.72;5046339;28;20453;-81
2022/04/04 03:17:58;;;;;;;6.63;5.90;;;-3.20;90.20;;;-5.05;88.34;98197.19;5051508;28;20471;-81
2022/04/04 03:20:27;;;;;;;8.77;6.60;;;-3.20;89.80;;;-5.08;87.86;98186.88;5048807;28;20462;-80
2022/04/04 03:22:57;;;;;;;7.70;6.10;;;-3.10;89.00;;;-4.99;87.98;98206.44;5064633;28;20509;-78
2022/04/04 03:25:25;;;;;;;10.07;7.40;;;-3.10;89.10;;;-5.09;88.07;98185.19;5055196;28;20473;-79
2022/04/04 03:27:53;;;;;;;10.70;7.57;;;-3.10;89.10;;;-5.10;88.33;98190.56;5066021;28;20462;-78
2022/04/04 03:30:27;;;;;;;7.80;7.00;;;-3.10;89.10;;;-5.20;88.19;98193.88;5052811;28;20459;-81
2022/04/04 03:32:57;;;;;;;8.60;6.40;;;-3.20;88.90;;;-5.08;88.25;98199.19;5050120;28;20479;-83
2022/04/04 03:35:26;;;;;;;8.00;6.20;;;-3.20;89.00;;;-5.13;88.72;98200.38;5048430;28;20441;-83
2022/04/04 03:37:57;;;;;;;10.10;6.10;;;-3.20;89.10;;;-5.21;89.47;98201.88;5048617;28;20455;-77
2022/04/04 03:40:25;;;;;;;8.47;6.33;;;-3.30;90.10;;;-5.21;88.88;98189.56;5044754;28;20470;-79
2022/04/04 03:42:56;;;;;;;7.17;5.47;;;-3.30;90.20;;;-5.18;89.09;98199.88;5038854;28;20561;-80
2022/04/04 03:45:24;;;;;;;9.70;5.90;;;-3.30;90.10;;;-5.35;88.62;98169.47;5052243;28;20455;-82
2022/04/04 03:47:51;;;;;;;10.90;6.13;;;-3.30;90.20;;;-5.24;89.12;98181.84;5054946;28;20526;-81
2022/04/04 03:50:19;;;;;;;8.87;6.67;;;-3.30;90.10;;;-5.20;88.95;98183.34;5059625;28;20974;-83
2022/04/04 03:52:50;;;;;;;8.77;6.23;;;-3.30;90.00;;;-5.20;88.86;98182.47;5039573;28;20497;-76
2022/04/04 03:55:21;;;;;;;9.60;7.20;;;-3.20;89.70;;;-5.13;88.58;98184.56;5051227;28;20443;-80
2022/04/04 03:57:49;;;;;;;9.90;6.20;;;-3.20;89.70;;;-5.22;88.56;98173.84;5078714;28;20468;-83
2022/04/04 04:00:18;;;;;;;9.27;6.70;;;-3.20;89.20;;;-5.05;88.16;98188.44;5065022;28;20487;-80
2022/04/04 04:02:45;;;;;;;8.17;5.70;;;-3.10;88.30;;;-4.98;87.93;98184.41;5069455;28;20435;-80
2022/04/04 04:05:13;;;;;;;9.30;6.90;;;-3.10;88.30;;;-5.09;87.84;98179.06;5064208;28;20458;-80
2022/04/04 04:07:40;;;;;;;8.73;6.83;;;-3.10;88.10;;;-5.16;87.74;98161.06;5061552;28;20457;-77
2022/04/04 04:10:11;;;;;;;9.50;6.90;;;-3.10;87.70;;;-4.91;87.31;98188.28;5062941;28;20474;-82
2022/04/04 04:12:41;;;;;;;7.37;6.37;;;-3.10;87.40;;;-5.24;87.09;98129.16;5058324;28;20460;-83
2022/04/04 04:15:10;;;;;;;10.23;6.60;;;-3.10;87.20;;;-4.93;87.45;98187.53;5053337;28;20551;-82
2022/04/04 04:17:37;;;;;;;9.57;6.70;;;-3.00;86.60;;;-4.97;87.36;98180.81;5054831;28;20535;-87
2022/04/04 04:20:22;;;;;;;8.90;7.07;;;-3.00;86.50;;;-4.97;88.00;98178.16;5047341;28;20456;-85
2022/04/04 04:22:52;;;;;;;9.40;7.03;;;-3.10;87.10;;;-4.96;87.20;98184.28;5050776;28;20457;-84
2022/04/04 04:25:20;;;;;;;11.23;7.83;;;-3.10;86.80;;;-5.13;88.24;98174.03;5050706;28;20455;-84
2022/04/04 04:27:48;;;;;;;8.93;6.50;;;-3.10;86.90;;;-4.97;87.54;98172.91;5049138;28;20468;-84
2022/04/04 04:30:17;;;;;;;11.77;6.57;;;-3.10;87.60;;;-4.99;88.10;98186.19;5053890;28;20491;-84
2022/04/04 04:32:47;;;;;;;8.20;6.70;;;-3.10;87.30;;;-5.31;87.73;98112.13;5029447;28;20968;-83
2022/04/04 04:35:15;;;;;;;9.67;6.90;;;-3.10;88.30;;;-4.85;87.54;98176.44;5054158;28;20529;-76
2022/04/04 04:37:43;;;;;;;10.10;7.87;;;-3.10;88.00;;;-4.89;87.57;98175.81;5070839;28;20479;-80
2022/04/04 04:40:12;;;;;;;8.93;6.70;;;-3.00;87.40;;;-4.92;87.82;98170.78;5036857;28;20484;-74
2022/04/04 04:42:40;;;;;;;13.43;7.40;;;-3.00;87.90;;;-4.58;89.40;98177.94;5044231;28;20567;-74
2022/04/04 04:45:09;;;;;;;11.27;7.43;;;-2.90;91.20;;;-4.65;86.81;98167.00;5039611;28;20566;-73
2022/04/04 04:47:36;;;;;;;8.00;6.93;;;-2.80;87.30;;;-4.58;86.80;98175.31;5049023;28;20460;-74
2022/04/04 04:50:05;;;;;;;8.30;6.60;;;-2.70;86.50;;;-4.86;87.05;98162.41;5040576;28;20463;-75
2022/04/04 04:52:34;;;;;;;10.50;7.23;;;-2.80;85.20;;;-4.66;87.14;98170.63;5044425;28;20552;-75
2022/04/04 04:55:01;;;;;;;9.53;7.27;;;-2.80;87.20;;;-4.85;86.48;98143.00;5043989;28;20522;-77
2022/04/04 04:57:29;;;;;;;8.47;7.20;;;-2.80;85.40;;;-5.00;86.78;98104.59;5042375;28;20459;-72
2022/04/04 04:59:56;;;;;;;14.73;7.07;;;-2.80;85.90;;;-4.68;86.55;98156.72;5047815;28;20460;-78
2022/04/04 05:02:25;;;;;;;14.03;7.80;;;-2.80;85.10;;;-4.83;86.53;98124.44;5046118;28;20465;-77
2022/04/04 05:04:52;;;;;;;8.70;7.77;;;-2.70;85.00;;;-4.51;86.19;98144.91;5044948;28;20985;-78
2022/04/04 05:07:19;;;;;;;8.40;6.77;;;-2.60;85.40;;;-4.29;85.67;98154.66;5048049;28;20478;-75
2022/04/04 05:09:46;;;;;;;11.30;6.80;;;-2.40;85.60;;;-4.15;85.41;98155.38;5052090;28;20481;-81
2022/04/04 05:12:14;;;;;;;10.17;7.60;;;-2.40;84.50;;;-4.52;84.25;98093.09;5051667;28;20882;-78
2022/04/04 05:14:41;;;;;;;10.60;7.63;;;-2.40;81.70;;;-4.04;83.54;98155.38;5052090;28;20517;-73
2022/04/04 05:17:08;;;;;;;8.73;7.10;;;-2.20;81.00;;;-4.06;82.80;98146.72;5066193;28;20477;-73
2022/04/04 05:19:36;;;;;;;8.30;7.50;;;-2.20;79.40;;;-4.02;82.61;98158.75;5052401;28;20887;-84
2022/04/04 05:22:03;;;;;;;11.43;9.00;;;-2.20;79.10;;;-3.97;82.10;98141.72;5057824;28;20506;-77
2022/04/04 05:24:31;;;;;;;10.70;7.80;;;-2.20;78.50;;;-3.89;81.51;98156.00;5050011;28;20480;-80
2022/04/04 05:26:58;;;;;;;14.10;8.50;;;-2.10;77.50;;;-4.47;81.16;98076.94;5068531;28;20496;-73
2022/04/04 05:29:26;;;;;;;11.80;7.90;;;-2.10;76.60;;;-4.00;81.45;98148.91;5043589;28;20487;-82
2022/04/04 05:31:55;;;;;;;11.57;8.40;;;-2.10;76.80;;;-3.95;80.94;98151.16;5037811;28;20517;-75
2022/04/04 05:34:25;;;;;;;10.13;7.43;;;-2.10;76.80;;;-3.84;81.56;98135.34;5034415;28;20492;-77
2022/04/04 05:36:54;;;;;;;11.20;8.40;;;-2.10;78.00;;;-3.93;81.28;98148.41;5050274;28;20449;-79
2022/04/04 05:39:21;;;;;;;14.03;8.10;;;-2.10;76.60;;;-3.86;80.93;98131.97;5040671;28;20534;-81
2022/04/04 05:41:48;;;;;;;11.27;8.37;;;-2.00;76.50;;;-3.83;80.44;98144.09;5040385;28;20477;-71
2022/04/04 05:44:17;;;;;;;15.63;7.53;;;-1.90;75.60;;;-3.72;80.75;98146.72;5039987;28;21376;-81
2022/04/04 05:46:44;;;;;;;11.57;9.03;;;-1.90;76.20;;;-3.66;80.11;98147.22;5044859;28;20526;-78
2022/04/04 05:49:11;;;;;;;12.10;9.20;;;-1.80;75.50;;;-3.60;80.03;98146.72;5041337;28;20547;-74
2022/04/04 05:51:38;;;;;;;12.57;10.37;;;-1.80;75.30;;;-3.45;79.29;98145.50;5047341;28;20488;-82
2022/04/04 05:54:06;;;;;;;12.87;8.57;;;-1.60;74.70;;;-3.74;78.72;98093.19;5055287;28;20830;-74
2022/04/04 05:56:35;;;;;;;11.80;9.00;;;-1.60;74.30;;;-3.34;78.12;98144.63;5048931;28;20524;-78
2022/04/04 05:59:02;;;;;;;10.03;8.27;;;-1.50;73.80;;;-3.24;78.36;98142.09;5043181;28;20459;-73
2022/04/04 06:01:29;;;;;;;11.83;8.30;;;-1.40;73.70;;;-3.26;78.26;98144.03;5042197;28;20497;-72
2022/04/04 06:03:57;;;;;;;12.40;8.23;;;-1.40;73.50;;;-2.88;77.30;98150.59;5041291;28;20993;-77
2022/04/04 06:06:25;;;;;;;11.47;8.60;;;-1.20;73.20;;;-2.76;76.64;98147.91;5054440;28;20464;-79
2022/04/04 06:08:52;;;;;;;13.40;9.20;;;-1.00;72.60;;;-2.88;76.49;98150.59;5035562;28;20535;-76
2022/04/04 06:11:21;;;;;;;11.03;8.73;;;-1.00;71.90;;;-3.06;76.28;98088.69;5038864;28;20496;-68
2022/04/04 06:13:48;;;;;;;12.45;11.02;;;-1.00;71.90;;;-2.56;76.26;98147.09;5035820;28;20460;-73
2022/04/04 06:16:15;;;;;;;15.30;9.17;;;-0.80;72.10;;;-2.40;75.56;98144.97;5030044;28;20654;-75
2022/04/04 06:18:42;;;;;;;14.50;9.60;;;-0.60;71.40;;;-2.73;74.57;98086.81;5059760;28;20453;-73
2022/04/04 06:21:10;;;;;;;14.57;9.17;;;-0.60;70.80;;;-2.30;74.63;98151.13;5063091;28;20526;-72
2022/04/04 06:23:37;;;;;;;14.43;8.97;;;-0.50;70.50;;;-2.14;74.20;98148.84;5052017;28;20522;-76
2022/04/04 06:26:05;;;;;;;12.20;9.60;;;-0.40;70.40;;;-2.06;74.05;98142.91;5040158;28;20481;-74
2022/04/04 06:28:35;;;;;;;14.17;9.70;;;-0.30;70.10;;;-2.11;73.83;98145.13;5042052;28;20484;-71
2022/04/04 06:31:03;;;;;;;13.10;10.40;;;-0.30;69.90;;;-1.90;73.25;98146.88;5051219;28;20445;-77
2022/04/04 06:33:31;;;;;;;14.63;9.70;;;-0.20;69.90;;;-2.06;73.58;98152.69;5046101;28;20948;-71
2022/04/04 06:35:58;;;;;;;12.57;9.60;;;-0.20;69.50;;;-2.16;74.31;98148.16;5048333;28;20461;-76
2022/04/04 06:38:25;;;;;;;14.20;11.80;;;-0.30;69.90;;;-2.05;73.81;98146.41;5049735;28;20468;-77
2022/04/04 06:40:52;;;;;;;12.27;9.80;;;-0.30;69.90;;;-2.10;74.04;98130.91;5065432;28;20644;-76
2022/04/04 06:43:20;;;;;;;15.73;10.60;;;-0.30;70.00;;;-1.92;73.68;98135.59;5049385;28;20460;-80
2022/04/04 06:45:48;;;;;;;15.23;9.83;;;-0.20;70.00;;;-1.76;73.39;98127.16;5050991;28;20508;-77
2022/04/04 06:48:15;;;;;;;14.47;9.70;;;-0.10;69.80;;;-1.74;72.27;98120.75;5041735;28;20606;-72
2022/04/04 06:50:42;;;;;;;15.70;11.70;;;0.00;69.10;;;-1.55;72.59;98129.72;5039092;28;20459;-72
2022/04/04 06:53:10;;;;;;;14.43;12.40;;;0.20;69.20;;;-1.46;72.13;98128.06;5036789;28;20458;-72
2022/04/04 06:55:39;;;;;;;14.90;12.17;;;0.30;68.70;;;-1.34;71.81;98112.88;5046514;28;20953;-73
2022/04/04 06:58:07;;;;;;;13.20;11.17;;;0.40;68.60;;;-1.28;71.42;98117.66;5035228;28;20478;-74
2022/04/04 07:00:35;;;;;;;20.43;11.83;;;0.50;68.20;;;-1.33;71.53;98118.06;5035443;28;20549;-72
2022/04/04 07:03:05;;;;;;;17.53;11.73;;;0.40;68.40;;;-1.23;70.97;98117.22;5058164;28;20953;-73
2022/04/04 07:05:32;;;;;;;16.60;11.83;;;0.50;68.00;;;-1.17;71.10;98117.50;5032599;28;20466;-74
2022/04/04 07:07:59;;;;;;;16.70;12.70;;;0.60;68.00;;;-0.94;71.05;98109.28;5040148;28;20526;-73
2022/04/04 07:10:27;;;;;;;19.10;11.87;;;0.70;68.00;;;-0.90;70.50;98117.81;5037278;28;20515;-77
2022/04/04 07:12:54;;;;;;;17.47;11.93;;;0.80;67.60;;;-1.09;70.16;98068.25;5043746;28;20879;-72
2022/04/04 07:15:21;;;;;;;17.40;11.90;;;0.90;67.50;;;-0.50;70.39;98118.63;5049526;28;20544;-73
2022/04/04 07:17:48;;;;;;;16.53;12.63;;;1.00;67.90;;;-0.40;69.23;98111.44;5044547;28;20817;-73
2022/04/04 07:20:19;;;;;;;13.80;11.13;;;1.30;67.00;;;-0.17;67.96;98114.59;5037311;28;20448;-74
2022/04/04 07:22:47;;;;;;;19.60;13.47;;;1.40;66.30;;;0.01;67.90;98115.69;5054329;28;20535;-75
2022/04/04 07:25:15;;;;;;;17.10;13.00;;;1.60;66.20;;;-0.05;67.70;98109.13;5045102;28;20508;-72
2022/04/04 07:27:45;;;;;;;15.87;12.40;;;1.60;65.50;;;-0.40;67.41;98044.25;5047690;28;20472;-74
2022/04/04 07:30:17;;;;;;;21.57;13.70;;;1.60;65.30;;;0.03;67.44;98108.41;5048762;28;22500;-69
2022/04/04 07:32:45;;;;;;;14.20;12.67;;;1.60;65.10;;;0.13;66.86;98104.72;5044318;28;20462;-76
2022/04/04 07:35:13;;;;;;;14.33;12.30;;;1.80;64.60;;;0.18;66.83;98085.69;5040872;28;20465;-76
2022/04/04 07:37:44;;;;;;;15.30;12.43;;;1.90;64.50;;;0.43;65.51;98093.94;5038345;28;20519;-79
2022/04/04 07:40:14;;;;;;;13.93;12.53;;;2.00;63.60;;;0.38;65.42;98106.81;5044191;28;20541;-73
2022/04/04 07:42:44;;;;;;;16.63;14.93;;;2.10;63.00;;;0.65;64.91;98091.84;5049839;28;20463;-75
2022/04/04 07:45:15;;;;;;;14.00;12.60;;;2.20;62.90;;;0.58;64.41;98096.09;5052342;28;20247;-74
2022/04/04 07:47:43;;;;;;;17.60;13.10;;;2.20;62.30;;;0.42;65.10;98093.09;5055223;28;20508;-79
2022/04/04 07:50:14;;;;;;;12.90;11.53;;;2.10;61.90;;;0.60;63.64;98086.97;5050485;28;20521;-78
2022/04/04 07:52:42;;;;;;;14.97;11.10;;;2.20;61.40;;;0.74;63.92;98085.63;5038042;28;20465;-73
2022/04/04 07:55:10;;;;;;;13.37;11.97;;;2.30;61.40;;;0.88;63.08;98092.25;5043115;28;20449;-74
2022/04/04 07:57:38;;;;;;;12.57;11.27;;;2.50;60.90;;;0.89;62.51;98085.94;5046036;28;20535;-74
2022/04/04 08:00:08;;;;;;;17.77;11.93;;;2.60;60.10;;;1.16;62.17;98083.34;5046985;28;20540;-74
2022/04/04 08:02:35;;;;;;;14.63;12.23;;;2.70;60.20;;;1.32;62.06;98080.81;5044492;28;20496;-76
2022/04/04 08:05:04;;;;;;;13.77;11.37;;;2.90;60.00;;;1.32;61.04;98072.84;5058135;28;20480;-75
2022/04/04 08:07:31;;;;;;;15.30;12.10;;;2.90;59.20;;;1.25;61.37;98077.09;5037765;28;20456;-76
2022/04/04 08:09:59;;;;;;;14.17;11.17;;;2.90;59.10;;;1.27;61.08;98070.63;5039712;28;20552;-78
2022/04/04 08:12:27;;;;;;;16.67;11.30;;;2.90;58.70;;;1.21;60.69;98073.06;5039046;28;21109;-74
2022/04/04 08:14:54;;;;;;;12.50;11.17;;;2.80;58.30;;;1.15;60.85;98071.84;5041560;28;20492;-71
2022/04/04 08:17:21;;;;;;;12.17;10.80;;;2.80;58.10;;;1.30;60.37;98066.84;5062595;28;20549;-74
2022/04/04 08:19:50;;;;;;;13.03;11.30;;;2.80;58.00;;;1.48;59.78;98071.28;5037638;28;20551;-74
2022/04/04 08:22:17;;;;;;;11.00;9.83;;;3.00;58.10;;;1.60;59.26;98064.72;5055732;28;21259;-72
2022/04/04 08:24:44;;;;;;;14.60;11.00;;;3.20;57.30;;;1.45;58.66;98016.50;5035372;28;21221;-75
2022/04/04 08:27:13;;;;;;;7.97;7.17;;;3.30;56.60;;;1.34;58.33;98001.63;5036346;28;20467;-76
2022/04/04 08:29:40;;;;;;;14.07;11.17;;;3.30;56.00;;;1.74;58.84;98055.28;5035326;28;20489;-76
2022/04/04 08:32:08;;;;;;;13.67;11.00;;;3.30;56.50;;;1.92;58.29;98044.56;5039744;28;20516;-72
2022/04/04 08:34:35;;;;;;;11.63;9.70;;;3.50;56.20;;;2.11;57.37;98037.31;5034036;28;20450;-74
2022/04/04 08:37:02;;;;;;;11.13;10.03;;;3.70;55.70;;;2.24;56.73;98037.69;5039673;28;20485;-77
2022/04/04 08:39:30;;;;;;;12.23;10.43;;;3.80;55.10;;;2.15;56.79;98046.66;5037567;28;20950;-74
2022/04/04 08:41:57;;;;;;;9.97;8.50;;;3.70;54.80;;;2.23;56.50;98048.50;5037616;28;21006;-75
2022/04/04 08:44:26;;;;;;;9.77;7.53;;;3.80;54.50;;;2.23;56.28;98036.03;5040865;28;20461;-73
2022/04/04 08:46:53;;;;;;;13.47;10.20;;;3.80;54.10;;;2.22;56.86;98021.03;5037212;28;20552;-75
2022/04/04 08:49:20;;;;;;;13.30;11.90;;;3.90;54.70;;;2.21;56.43;98027.34;5053673;28;20455;-83
2022/04/04 08:51:49;;;;;;;11.60;10.40;;;3.90;54.40;;;2.35;55.79;98009.03;5037595;28;20276;-79
2022/04/04 08:54:16;;;;;;;11.07;10.00;;;3.90;53.70;;;2.41;55.31;98025.22;5034328;28;20497;-81
2022/04/04 08:56:44;;;;;;;10.60;9.50;;;4.00;53.20;;;2.73;54.58;98024.63;5037527;28;20486;-77
2022/04/04 08:59:11;;;;;;;11.70;8.83;;;4.20;53.10;;;2.81;54.27;98014.81;5054745;28;20518;-83
2022/04/04 09:01:39;;;;;;;8.97;8.07;;;4.30;52.70;;;2.91;52.58;98013.78;5042233;28;20526;-78
2022/04/04 09:04:17;;;;;;;11.50;9.13;;;4.50;51.40;;;3.08;53.18;98015.47;5036306;28;20533;-80
2022/04/04 09:06:50;;;;;;;9.50;7.27;;;4.60;51.50;;;3.13;52.21;98006.13;5038743;28;20470;-77
2022/04/04 09:09:22;;;;;;;9.23;8.33;;;4.70;50.70;;;3.19;52.34;98008.13;5039046;28;20459;-77
2022/04/04 09:11:54;;;;;;;9.30;8.37;;;4.70;51.00;;;3.03;52.92;97995.59;5048090;28;20462;-78
2022/04/04 09:14:25;;;;;;;9.30;8.50;;;4.60;50.70;;;3.42;52.30;97994.91;5049660;28;20453;-77
2022/04/04 09:17:00;;;;;;;9.33;8.50;;;4.80;51.20;;;3.63;51.42;97996.16;5084411;28;20418;-75
2022/04/04 09:19:32;;;;;;;8.97;8.07;;;5.10;50.70;;;3.72;50.61;97936.38;5068345;28;20496;-78
2022/04/04 09:22:08;;;;;;;10.23;9.07;;;5.40;50.00;;;3.99;50.03;97984.19;5051031;28;20859;-73
2022/04/04 09:24:51;;;;;;;9.63;8.40;;;5.50;49.10;;;4.16;48.91;97980.44;5047651;28;20503;-77
2022/04/04 09:27:24;;;;;;;9.73;8.47;;;5.70;48.40;;;4.04;49.48;97968.47;5034044;28;20488;-83
2022/04/04 09:29:54;;;;;;;9.87;7.73;;;5.70;48.40;;;3.97;49.71;97977.19;5052223;28;20553;-78
2022/04/04 09:32:24;;;;;;;6.90;6.23;;;5.50;48.30;;;3.84;49.22;97971.56;5061761;28;20458;-70
2022/04/04 09:35:00;;;;;;;8.57;7.53;;;5.40;47.70;;;3.87;48.73;97965.88;5052257;28;20485;-72
2022/04/04 09:37:31;;;;;;;8.47;7.50;;;5.50;48.10;;;3.66;49.42;97969.13;5047328;28;21647;-82
2022/04/04 09:40:12;;;;;;;7.37;6.60;;;5.30;47.60;;;3.83;47.93;97965.38;5044013;28;20507;-81
2022/04/04 09:42:39;;;;;;;7.43;6.63;;;5.30;47.10;;;3.83;47.82;97957.38;5052099;28;20461;-83
2022/04/04 09:45:09;;;;;;;7.57;6.67;;;5.30;46.60;;;3.74;48.00;97930.84;5050536;28;20539;-81
2022/04/04 09:47:50;;;;;;;7.47;6.63;;;5.40;46.40;;;4.06;47.20;97947.75;5049368;28;20830;-81
2022/04/04 09:50:35;;;;;;;7.67;6.83;;;5.50;46.10;;;3.98;46.81;97937.94;5040254;28;21033;-82
2022/04/04 09:53:04;;;;;;;6.90;6.17;;;5.60;45.70;;;3.99;47.18;97952.94;5041827;28;20449;-70
2022/04/04 09:55:34;;;;;;;7.70;6.37;;;5.50;45.50;;;4.09;46.27;97942.03;5040277;28;20555;-70
2022/04/04 09:58:06;;;;;;;7.10;5.90;;;5.60;45.10;;;4.16;45.66;97942.16;5040987;28;20532;-71
2022/04/04 10:00:36;;;;;;;8.63;5.73;;;5.70;44.80;;;4.14;43.77;97936.97;5041350;28;20873;-71
2022/04/04 10:03:12;;;;;;;6.80;5.53;;;5.70;43.70;;;4.04;44.29;97933.72;5042517;28;20932;-73
2022/04/04 10:05:43;;;;;;;6.57;5.97;;;5.60;43.50;;;4.08;44.47;97933.16;5039509;28;20596;-75
2022/04/04 10:08:14;;;;;;;7.17;6.47;;;5.50;43.80;;;4.12;44.14;97925.63;5041022;28;20958;-72
2022/04/04 10:10:42;;;;;;;7.03;6.40;;;5.70;43.50;;;4.07;44.77;97936.03;5044168;28;20460;-73
2022/04/04 10:13:11;;;;;;;6.70;6.10;;;5.60;43.30;;;4.05;45.12;97924.69;5047881;28;20448;-73
2022/04/04 10:15:38;;;;;;;6.70;6.10;;;5.50;43.70;;;4.31;44.31;97923.50;5046621;28;20474;-71
2022/04/04 10:18:08;;;;;;;6.37;5.77;;;5.80;43.60;;;4.29;43.14;97913.00;5044607;28;20480;-71
2022/04/04 10:20:37;;;;;;;6.20;5.60;;;5.90;42.30;;;4.47;43.68;97912.69;5046359;28;20473;-72
2022/04/04 10:23:06;;;;;;;7.10;6.30;;;5.90;42.80;;;4.67;43.66;97901.50;5040025;28;20465;-72
2022/04/04 10:25:35;;;;;;;7.03;6.00;;;6.10;42.80;;;5.01;42.32;97900.19;5043256;28;20500;-71
2022/04/04 10:28:02;;;;;;;6.67;6.07;;;6.40;43.00;;;4.46;43.27;97884.25;5042102;28;20466;-75
2022/04/04 10:30:35;;;;;;;6.40;5.73;;;6.10;42.40;;;4.76;41.93;97838.84;5043460;28;20972;-71